createdAt,value
2022-12-12T00:04:14.959Z,28.03
2022-12-12T00:09:09.507Z,31.70
2022-12-12T00:14:03.024Z,33.40
2022-12-12T00:18:57.820Z,28.87
2022-12-12T00:23:51.857Z,31.53
2022-12-12T00:33:52.476Z,32.03
2022-12-12T00:49:01.073Z,32.97
2022-12-12T00:53:54.794Z,32.57
2022-12-12T00:58:48.764Z,32.93
2022-12-12T01:03:43.877Z,32.40
2022-12-12T01:39:16.773Z,35.13
2022-12-12T01:54:44.773Z,37.13
2022-12-12T02:04:45.433Z,38.77
2022-12-12T02:25:44.117Z,39.33
2022-12-12T02:30:49.774Z,37.47
2022-12-12T02:41:15.368Z,31.47
2022-12-12T02:51:17.156Z,30.57
2022-12-12T03:07:08.337Z,27.23
2022-12-12T03:17:29.782Z,27.13
2022-12-12T03:27:38.913Z,25.03
2022-12-12T03:32:44.008Z,28.13
2022-12-12T03:37:45.760Z,24.33
2022-12-12T03:42:48.246Z,26.70
2022-12-12T03:47:50.516Z,26.77
2022-12-12T03:52:52.250Z,24.83
2022-12-12T03:57:56.076Z,23.60
2022-12-12T04:02:57.283Z,23.17
2022-12-12T04:08:02.577Z,26.80
2022-12-12T04:13:20.980Z,23.83
2022-12-12T04:18:24.971Z,26.37
2022-12-12T04:23:33.255Z,28.57
2022-12-12T04:28:31.950Z,28.00
2022-12-12T04:33:36.976Z,27.67
2022-12-12T04:38:31.169Z,25.20
2022-12-12T04:43:34.219Z,29.67
2022-12-12T04:48:38.308Z,26.13
2022-12-12T04:53:41.322Z,26.17
2022-12-12T04:58:37.738Z,24.17
2022-12-12T05:03:44.811Z,23.93
2022-12-12T05:08:45.335Z,21.07
2022-12-12T05:13:43.029Z,22.97
2022-12-12T05:18:36.286Z,24.27
2022-12-12T05:23:34.446Z,22.97
2022-12-12T05:28:28.160Z,26.90
2022-12-12T05:33:22.852Z,21.57
2022-12-12T05:38:16.246Z,23.63
2022-12-12T05:43:09.644Z,23.97
2022-12-12T05:48:02.983Z,26.77
2022-12-12T05:52:57.638Z,27.00
2022-12-12T05:57:50.877Z,25.00
2022-12-12T06:02:44.373Z,24.90
2022-12-12T06:07:37.735Z,23.47
2022-12-12T06:12:32.472Z,24.43
2022-12-12T06:17:32.742Z,24.23
2022-12-12T06:22:26.516Z,27.33
2022-12-12T06:27:19.840Z,24.23
2022-12-12T06:32:14.667Z,24.13
2022-12-12T06:37:10.731Z,21.90
2022-12-12T06:42:08.972Z,23.83
2022-12-12T06:47:02.272Z,21.23
2022-12-12T06:52:00.067Z,20.67
2022-12-12T06:56:53.420Z,20.50
2022-12-12T07:01:47.273Z,22.53
2022-12-12T07:06:40.785Z,19.53
2022-12-12T07:11:35.729Z,20.27
2022-12-12T07:16:29.077Z,20.23
2022-12-12T07:21:23.376Z,21.00
2022-12-12T07:26:19.535Z,18.07
2022-12-12T07:31:17.757Z,22.70
2022-12-12T07:36:12.083Z,20.97
2022-12-12T07:41:07.665Z,20.57
2022-12-12T07:46:01.047Z,19.57
2022-12-12T07:50:56.075Z,20.20
2022-12-12T07:55:50.972Z,17.57
2022-12-12T08:00:46.955Z,18.07
2022-12-12T08:05:42.068Z,19.07
2022-12-12T08:10:39.830Z,17.43
2022-12-12T08:15:33.331Z,18.80
2022-12-12T08:20:26.752Z,19.87
2022-12-12T08:25:20.237Z,16.03
2022-12-12T08:30:15.946Z,23.47
2022-12-12T08:35:10.686Z,18.07
2022-12-12T08:40:08.353Z,17.70
2022-12-12T08:45:01.710Z,21.83
2022-12-12T08:49:56.491Z,24.13
2022-12-12T08:54:51.832Z,19.77
2022-12-12T08:59:45.220Z,19.57
2022-12-12T09:04:38.600Z,20.53
2022-12-12T09:09:33.933Z,19.60
2022-12-12T09:14:27.476Z,19.57
2022-12-12T09:19:20.985Z,19.63
2022-12-12T09:24:14.449Z,19.50
2022-12-12T09:29:09.505Z,20.87
2022-12-12T09:34:02.787Z,21.73
2022-12-12T09:38:56.139Z,22.10
2022-12-12T09:43:57.057Z,20.87
2022-12-12T09:48:52.050Z,22.47
2022-12-12T09:53:48.562Z,18.90
2022-12-12T09:58:56.871Z,21.63
2022-12-12T10:04:07.891Z,21.23
2022-12-12T10:09:22.276Z,19.93
2022-12-12T10:14:18.854Z,19.43
2022-12-12T10:19:23.264Z,19.57
2022-12-12T10:24:33.468Z,22.30
2022-12-12T10:29:28.577Z,20.50
2022-12-12T10:34:47.406Z,19.87
2022-12-12T10:40:03.854Z,22.10
2022-12-12T10:45:19.736Z,24.13
2022-12-12T10:50:29.886Z,19.97
2022-12-12T10:55:36.759Z,20.23
2022-12-12T11:00:34.598Z,21.13
2022-12-12T11:05:51.812Z,19.77
2022-12-12T11:10:46.052Z,21.77
2022-12-12T11:15:45.674Z,25.57
2022-12-12T11:20:50.984Z,21.17
2022-12-12T11:25:44.689Z,22.13
2022-12-12T11:30:45.310Z,21.93
2022-12-12T11:35:47.425Z,21.13
2022-12-12T11:40:41.968Z,17.50
2022-12-12T11:45:38.944Z,17.23
2022-12-12T11:50:32.359Z,17.17
2022-12-12T11:55:40.271Z,18.23
2022-12-12T12:00:45.148Z,17.77
2022-12-12T12:05:55.979Z,18.63
2022-12-12T12:11:06.601Z,21.50
2022-12-12T12:16:13.402Z,17.67
2022-12-12T12:21:42.769Z,18.17
2022-12-12T12:26:50.913Z,18.87
2022-12-12T12:32:02.156Z,17.97
2022-12-12T12:37:12.643Z,18.50
2022-12-12T12:42:25.095Z,18.73
2022-12-12T12:47:34.307Z,18.77
2022-12-12T12:52:37.324Z,17.23
2022-12-12T12:57:39.215Z,19.47
2022-12-12T13:02:49.337Z,18.03
2022-12-12T13:07:53.335Z,21.97
2022-12-12T13:12:57.301Z,16.03
2022-12-12T13:18:01.394Z,16.20
2022-12-12T13:23:18.570Z,18.40
2022-12-12T13:28:18.899Z,17.23
2022-12-12T13:33:36.944Z,16.63
2022-12-12T13:38:35.842Z,20.27
2022-12-12T13:43:44.848Z,18.00
2022-12-12T13:48:55.429Z,18.10
2022-12-12T13:53:48.806Z,18.73
2022-12-12T13:58:43.770Z,16.53
2022-12-12T14:03:39.455Z,17.63
2022-12-12T14:08:37.914Z,20.33
2022-12-12T14:13:45.573Z,18.67
2022-12-12T14:18:42.767Z,17.27
2022-12-12T14:23:42.094Z,15.17
2022-12-12T14:28:36.049Z,17.20
2022-12-12T14:34:22.458Z,16.67
2022-12-12T14:39:38.162Z,15.67
2022-12-12T14:44:38.969Z,19.13
2022-12-12T14:49:34.058Z,17.63
2022-12-12T14:54:28.292Z,16.37
2022-12-12T14:59:35.331Z,16.83
2022-12-12T15:04:38.521Z,15.80
2022-12-12T15:09:33.492Z,16.33
2022-12-12T15:14:33.239Z,17.70
2022-12-12T15:19:32.492Z,17.53
2022-12-12T15:24:36.794Z,20.83
2022-12-12T15:29:33.665Z,17.70
2022-12-12T15:34:33.449Z,25.40
2022-12-12T15:39:28.168Z,19.70
2022-12-12T15:44:23.181Z,16.53
2022-12-12T15:49:40.708Z,18.13
2022-12-12T15:54:35.454Z,22.30
2022-12-12T15:59:34.640Z,17.97
2022-12-12T16:04:28.086Z,18.60
2022-12-12T16:09:25.211Z,18.07
2022-12-12T16:14:54.321Z,18.87
2022-12-12T16:19:57.514Z,17.47
2022-12-12T16:24:54.216Z,18.83
2022-12-12T16:29:53.224Z,17.60
2022-12-12T16:34:54.956Z,19.77
2022-12-12T16:40:16.192Z,19.43
2022-12-12T16:45:25.890Z,15.97
2022-12-12T16:50:21.785Z,23.33
2022-12-12T16:55:36.394Z,25.47
2022-12-12T17:00:37.440Z,24.27
2022-12-12T17:05:30.915Z,25.23
2022-12-12T17:10:31.757Z,26.87
2022-12-12T17:15:28.722Z,23.63
2022-12-12T17:20:24.462Z,21.60
2022-12-12T17:25:18.219Z,22.47
2022-12-12T17:30:14.593Z,20.73
2022-12-12T17:35:10.003Z,22.20
2022-12-12T17:46:31.052Z,20.53
2022-12-12T17:51:25.166Z,19.75
2022-12-12T17:56:21.151Z,20.07
2022-12-12T18:01:20.103Z,19.47
2022-12-12T18:06:15.487Z,22.57
2022-12-12T18:11:10.229Z,22.93
2022-12-12T18:16:04.345Z,20.37
2022-12-12T18:21:05.711Z,19.37
2022-12-12T18:26:04.971Z,20.87
2022-12-12T18:30:58.580Z,20.10
2022-12-12T18:35:52.118Z,18.70
2022-12-12T18:40:47.028Z,21.10
2022-12-12T18:45:40.352Z,20.03
2022-12-12T18:50:36.229Z,19.93
2022-12-12T18:55:30.487Z,21.07
2022-12-12T19:00:25.810Z,20.70
2022-12-12T19:05:19.486Z,21.37
2022-12-12T19:10:13.226Z,27.07
2022-12-12T19:15:18.015Z,22.90
2022-12-12T19:20:14.099Z,24.77
2022-12-12T19:25:09.742Z,22.13
2022-12-12T19:30:03.177Z,24.17
2022-12-12T19:35:08.073Z,23.33
2022-12-12T19:40:03.302Z,24.77
2022-12-12T19:44:56.737Z,24.27
2022-12-12T19:49:51.123Z,26.83
2022-12-12T19:54:44.901Z,26.93
2022-12-12T19:59:41.117Z,24.03
2022-12-12T20:04:34.766Z,25.47
2022-12-12T20:09:30.559Z,24.63
2022-12-12T20:14:26.665Z,24.50
2022-12-12T20:19:29.011Z,22.33
2022-12-12T20:24:25.772Z,23.67
2022-12-12T20:29:21.845Z,19.63
2022-12-12T20:34:21.829Z,22.23
2022-12-12T20:39:22.421Z,21.60
2022-12-12T20:44:16.815Z,20.50
2022-12-12T20:49:24.172Z,18.40
2022-12-12T20:54:21.692Z,18.10
2022-12-12T20:59:15.608Z,20.90
2022-12-12T21:04:12.335Z,17.67
2022-12-12T21:09:17.749Z,17.80
2022-12-12T21:14:17.675Z,17.30
2022-12-12T21:19:15.038Z,14.57
2022-12-12T21:24:09.529Z,14.37
2022-12-12T21:29:04.940Z,15.20
2022-12-12T21:34:04.349Z,14.30
2022-12-12T21:39:00.017Z,16.17
2022-12-12T21:43:54.035Z,15.60
2022-12-12T21:49:08.248Z,14.63
2022-12-12T21:54:03.944Z,13.43
2022-12-12T21:58:59.383Z,12.20
2022-12-12T22:03:52.787Z,16.80
2022-12-12T22:08:47.202Z,16.83
2022-12-12T22:13:43.561Z,14.60
2022-12-12T22:18:37.129Z,14.07
2022-12-12T22:23:30.397Z,27.90
2022-12-12T22:28:23.771Z,25.57
2022-12-12T22:33:18.446Z,16.03
2022-12-12T22:38:11.696Z,17.40
2022-12-12T22:43:05.143Z,14.90
2022-12-12T22:47:58.444Z,19.40
2022-12-12T22:52:53.158Z,17.20
2022-12-12T22:57:48.303Z,12.77
2022-12-12T23:02:41.638Z,13.27
2022-12-12T23:07:34.961Z,13.53
2022-12-12T23:12:30.473Z,33.60
2022-12-12T23:17:23.915Z,54.63
2022-12-12T23:22:18.441Z,13.13
2022-12-12T23:27:11.870Z,10.43
2022-12-12T23:32:06.631Z,12.40
2022-12-12T23:36:59.943Z,13.20
2022-12-12T23:41:53.846Z,11.97
2022-12-12T23:46:47.369Z,11.17
2022-12-12T23:51:45.727Z,11.97
2022-12-12T23:56:40.326Z,11.93
